Time;durP1;ratioP1;P1;durP2;ratioP2;P2;SDS_P1;SDS_P2;PMS_P1;PMS_P2;Temp;Humidity;BMP_temperature;BMP_pressure;BME280_temperature;BME280_humidity;BME280_pressure;Samples;Min_cycle;Max_cycle;Signal;HPM_P1;HPM_P2
2023/11/26 00:01:29;;;;;;;14.45;5.20;;;9.60;99.90;;;9.09;79.02;101322.97;5117511;28;20044;-69
2023/11/26 00:03:57;;;;;;;11.63;4.55;;;9.50;99.90;;;9.76;79.41;101448.50;5117412;28;20055;-69
2023/11/26 00:06:31;;;;;;;11.73;5.00;;;9.40;99.90;;;9.68;79.51;101449.31;5117106;28;20043;-69
2023/11/26 00:08:59;;;;;;;15.80;5.17;;;9.30;99.90;;;9.67;80.02;101445.78;5117230;28;20417;-70
2023/11/26 00:11:28;;;;;;;14.45;4.88;;;9.30;99.90;;;9.64;80.07;101445.75;5098886;28;20285;-69
2023/11/26 00:13:56;;;;;;;13.55;5.45;;;9.30;99.90;;;9.69;80.05;101453.72;5117259;28;20058;-70
2023/11/26 00:16:25;;;;;;;11.32;4.50;;;9.30;99.90;;;9.69;80.13;101446.69;5116815;28;20040;-69
2023/11/26 00:18:53;;;;;;;15.55;5.25;;;9.30;99.90;;;9.75;80.53;101452.03;5117122;28;20063;-70
2023/11/26 00:21:23;;;;;;;21.63;6.22;;;9.40;99.90;;;9.93;80.37;101445.97;5116985;28;20039;-69
2023/11/26 00:23:53;;;;;;;15.25;5.43;;;9.60;99.90;;;10.08;79.60;101446.09;5116740;28;20040;-70
2023/11/26 00:26:21;;;;;;;17.13;5.22;;;9.70;99.90;;;10.16;79.62;101451.47;5117140;28;20500;-68
2023/11/26 00:28:58;;;;;;;15.25;4.97;;;9.80;99.90;;;10.21;79.12;101444.44;5098562;28;20052;-69
2023/11/26 00:31:26;;;;;;;15.60;5.38;;;9.90;99.90;;;10.20;78.93;101440.91;5116831;28;20043;-70
2023/11/26 00:33:56;;;;;;;14.38;5.13;;;9.90;99.90;;;10.23;78.80;101440.06;5116479;28;20067;-70
2023/11/26 00:36:24;;;;;;;15.63;4.60;;;9.90;99.90;;;10.28;78.55;101448.91;5098177;28;20050;-69
2023/11/26 00:38:54;;;;;;;13.38;4.90;;;10.00;99.90;;;10.29;78.72;101451.56;5116745;28;20233;-70
2023/11/26 00:41:22;;;;;;;17.97;5.20;;;10.00;99.90;;;9.94;79.70;101442.47;5098418;28;20404;-69
2023/11/26 00:43:50;;;;;;;17.95;5.90;;;9.70;99.90;;;9.94;79.88;101438.09;5116317;28;20047;-69
2023/11/26 00:46:19;;;;;;;13.88;5.15;;;9.70;99.90;;;10.10;79.77;101447.03;5116295;28;20048;-69
2023/11/26 00:48:47;;;;;;;13.30;4.78;;;9.70;99.90;;;10.07;79.64;101448.72;5116453;28;20043;-69
2023/11/26 00:51:19;;;;;;;15.27;5.22;;;9.70;99.90;;;9.83;79.75;101423.88;5098152;28;20055;-69
2023/11/26 00:53:49;;;;;;;14.40;4.80;;;9.70;99.90;;;9.98;79.99;101447.81;5097818;28;20043;-69
2023/11/26 00:56:20;;;;;;;11.55;4.95;;;9.60;99.90;;;10.07;79.80;101452.25;5098188;28;20055;-70
2023/11/26 00:58:50;;;;;;;18.33;5.47;;;9.70;99.90;;;10.08;79.39;101455.78;5098139;28;20093;-70
2023/11/26 01:01:19;;;;;;;12.55;5.00;;;9.70;99.90;;;10.00;79.75;101455.75;5097861;28;20138;-69
2023/11/26 01:03:47;;;;;;;13.57;4.93;;;9.70;99.90;;;9.95;79.60;101447.75;5116237;28;20449;-70
2023/11/26 01:06:16;;;;;;;17.23;5.07;;;9.60;99.90;;;9.91;78.84;101459.19;5097869;28;20048;-69
2023/11/26 01:08:44;;;;;;;11.20;4.72;;;9.60;99.90;;;9.88;78.69;101459.19;5115979;28;20072;-70
2023/11/26 01:11:13;;;;;;;16.30;5.43;;;9.60;99.90;;;9.83;78.48;101468.81;5116033;28;20115;-70
2023/11/26 01:13:44;;;;;;;15.57;5.30;;;9.50;99.90;;;9.79;78.39;101453.78;5115653;28;20039;-69
2023/11/26 01:16:13;;;;;;;;;;;9.50;99.90;;;9.77;78.42;101465.25;5116168;28;20495;-70
2023/11/26 01:18:42;;;;;;;18.40;5.53;;;9.50;99.90;;;9.80;78.38;101467.91;5097633;28;19968;-70
2023/11/26 01:21:10;;;;;;;17.67;5.57;;;9.50;99.90;;;9.78;78.67;101473.19;5097610;28;20084;-69
2023/11/26 01:23:39;;;;;;;13.60;5.18;;;9.50;99.90;;;9.65;78.68;101473.06;5097609;28;20104;-70
2023/11/26 01:26:07;;;;;;;15.13;5.55;;;9.40;99.90;;;9.59;79.27;101465.97;5116026;28;20055;-70
2023/11/26 01:28:37;;;;;;;15.35;5.60;;;9.30;99.90;;;8.89;79.76;101358.81;5115754;28;20040;-70
2023/11/26 01:31:10;;;;;;;15.73;5.20;;;9.30;99.90;;;9.54;79.97;101483.50;5115391;28;20554;-69
2023/11/26 01:33:39;;;;;;;14.38;4.90;;;9.20;99.90;;;9.55;79.55;101482.66;5115637;28;20126;-70
2023/11/26 01:36:09;;;;;;;17.17;5.60;;;9.20;99.90;;;9.60;79.57;101480.94;5115643;28;20039;-70
2023/11/26 01:38:37;;;;;;;13.18;5.10;;;9.20;99.90;;;9.56;79.99;101481.78;5097384;28;20101;-70
2023/11/26 01:41:07;;;;;;;15.57;5.47;;;9.20;99.90;;;9.53;80.05;101487.03;5115504;28;20113;-70
2023/11/26 01:43:35;;;;;;;14.05;4.65;;;9.20;99.90;;;9.61;80.31;101495.03;5115196;28;20415;-70
2023/11/26 01:46:08;;;;;;;12.38;4.88;;;9.20;99.90;;;9.62;80.43;101484.47;5115389;28;20046;-70
2023/11/26 01:48:38;;;;;;;14.18;5.22;;;9.30;99.90;;;9.63;80.20;101475.69;5115415;28;20073;-70
2023/11/26 01:51:10;;;;;;;12.40;4.53;;;9.30;99.90;;;9.69;80.37;101477.50;5096998;28;20058;-70
2023/11/26 01:53:43;;;;;;;14.80;4.70;;;9.40;99.90;;;9.84;80.25;101481.16;5115254;28;20096;-70
2023/11/26 01:56:12;;;;;;;11.50;4.80;;;9.50;99.90;;;9.86;80.40;101479.41;5096996;28;20116;-70
2023/11/26 01:58:40;;;;;;;13.63;4.82;;;9.50;99.90;;;9.81;80.08;101465.25;5114894;28;20538;-70
2023/11/26 02:01:15;;;;;;;13.82;5.00;;;9.50;99.90;;;9.84;79.94;101472.34;5096556;28;20056;-69
2023/11/26 02:03:44;;;;;;;10.27;4.85;;;9.50;99.90;;;9.84;80.33;101473.22;5096756;28;20056;-69
2023/11/26 02:06:13;;;;;;;13.88;4.80;;;9.50;99.90;;;9.74;79.93;101466.09;5114976;28;20039;-70
2023/11/26 02:08:45;;;;;;;9.40;4.13;;;9.50;99.90;;;9.59;80.31;101473.00;5096750;28;20051;-70
2023/11/26 02:11:14;;;;;;;10.43;4.60;;;9.30;99.90;;;9.49;81.01;101474.66;5114868;28;20042;-70
2023/11/26 02:13:46;;;;;;;15.73;4.82;;;9.20;99.90;;;9.48;81.01;101469.38;5115068;28;20043;-70
2023/11/26 02:16:17;;;;;;;14.40;4.78;;;9.20;99.90;;;9.36;81.39;101462.22;5096520;28;20051;-70
2023/11/26 02:18:46;;;;;;;10.77;4.65;;;9.10;99.90;;;9.35;81.43;101465.72;5095828;28;20100;-70
2023/11/26 02:21:15;;;;;;;9.47;4.30;;;9.10;99.90;;;9.36;81.11;101471.91;5096417;28;20050;-70
2023/11/26 02:23:47;;;;;;;11.88;4.82;;;9.00;99.90;;;9.34;81.64;101463.97;5096301;28;20285;-69
2023/11/26 02:26:16;;;;;;;9.95;4.53;;;9.00;99.90;;;9.32;82.02;101460.44;5114322;28;20047;-69
2023/11/26 02:28:45;;;;;;;9.60;4.25;;;9.00;99.90;;;9.22;81.72;101457.66;5114612;28;20087;-69
2023/11/26 02:31:13;;;;;;;13.73;4.70;;;8.90;99.90;;;9.19;81.87;101455.91;5114503;28;20043;-69
2023/11/26 02:33:42;;;;;;;11.93;4.88;;;8.90;99.90;;;9.18;81.83;101454.09;5114481;28;20040;-69
2023/11/26 02:36:25;;;;;;;15.27;4.85;;;8.80;99.90;;;9.18;81.63;101458.50;5114527;28;20043;-70
2023/11/26 02:38:55;;;;;;;11.73;4.45;;;8.80;99.90;;;9.25;82.14;101448.03;5095938;28;20488;-70
2023/11/26 02:41:26;;;;;;;9.55;4.60;;;8.90;99.90;;;9.33;82.19;101446.34;5114337;28;20051;-70
2023/11/26 02:43:55;;;;;;;12.45;4.88;;;9.00;99.90;;;9.40;81.86;101440.28;5114073;28;20075;-70
2023/11/26 02:46:23;;;;;;;13.75;4.93;;;9.00;99.90;;;9.41;81.74;101454.34;5113965;28;20044;-69
2023/11/26 02:48:52;;;;;;;9.27;4.72;;;9.10;99.90;;;9.36;81.58;101435.81;5114202;28;20085;-70
2023/11/26 02:51:20;;;;;;;10.23;4.53;;;9.10;99.90;;;9.45;81.52;101438.53;5114386;28;20074;-70
2023/11/26 02:53:48;;;;;;;9.75;4.47;;;9.20;99.90;;;9.48;81.89;101451.78;5095839;28;20051;-69
2023/11/26 02:56:17;;;;;;;11.57;4.40;;;9.20;99.90;;;9.47;81.55;101444.72;5113588;28;20504;-70
2023/11/26 02:58:47;;;;;;;12.90;4.25;;;9.20;99.90;;;9.49;81.79;101450.91;5114059;28;20044;-70
2023/11/26 03:01:19;;;;;;;13.38;4.78;;;9.20;99.90;;;9.45;82.12;101443.81;5114069;28;20450;-70
2023/11/26 03:03:48;;;;;;;12.50;4.20;;;9.20;99.90;;;9.37;82.69;101448.13;5095727;28;20067;-69
2023/11/26 03:06:19;;;;;;;9.25;4.20;;;9.10;99.90;;;9.28;82.93;101440.16;5095563;28;20043;-70
2023/11/26 03:08:48;;;;;;;;;;;9.00;99.90;;;9.24;82.87;101435.69;5095749;28;20101;-69
2023/11/26 03:14:03;;;;;;;15.57;4.53;;;9.00;99.90;;;9.41;82.75;101455.22;5113816;28;20043;-69
2023/11/26 03:16:32;;;;;;;11.40;4.50;;;9.10;99.90;;;9.37;82.58;101463.13;5095445;28;20044;-70
2023/11/26 03:19:01;;;;;;;9.35;4.25;;;9.10;99.90;;;9.29;83.48;101447.19;5113637;28;20043;-70
2023/11/26 03:21:29;;;;;;;12.10;4.47;;;9.00;99.90;;;9.28;83.56;101408.47;5113714;28;20043;-70
2023/11/26 03:23:58;;;;;;;14.98;4.88;;;9.10;99.90;;;9.64;83.44;101443.09;5113644;28;20047;-70
2023/11/26 03:26:26;;;;;;;15.32;5.20;;;9.30;99.90;;;9.73;83.67;101453.78;5113617;28;20040;-70
2023/11/26 03:28:55;;;;;;;11.82;4.25;;;9.40;99.90;;;9.67;83.43;101435.22;5113286;28;20148;-70
2023/11/26 03:31:26;;;;;;;12.93;4.40;;;9.50;99.90;;;9.82;82.91;101451.19;5094296;28;20075;-70
2023/11/26 03:33:54;;;;;;;16.13;4.90;;;9.50;99.90;;;9.85;83.22;101451.22;5095287;28;20051;-70
2023/11/26 03:36:23;;;;;;;18.63;4.95;;;9.60;99.90;;;9.85;82.72;101448.56;5095081;28;20070;-70
2023/11/26 03:38:52;;;;;;;9.30;4.20;;;9.60;99.90;;;9.85;82.79;101445.06;5113152;28;20523;-69
2023/11/26 03:41:20;;;;;;;8.93;4.30;;;9.60;99.90;;;9.87;82.67;101438.91;5113111;28;20062;-70
2023/11/26 03:43:50;;;;;;;11.75;4.63;;;9.60;99.90;;;9.90;82.21;101440.69;5113419;28;20392;-70
2023/11/26 03:46:19;;;;;;;9.80;4.80;;;9.60;99.90;;;9.80;82.18;101431.81;5095032;28;20047;-69
2023/11/26 03:48:49;;;;;;;10.88;4.35;;;9.60;99.90;;;9.86;82.12;101438.88;5095086;28;20050;-70
2023/11/26 03:51:20;;;;;;;14.25;4.65;;;9.60;99.90;;;9.90;81.96;101446.88;5113645;28;20046;-69
2023/11/26 03:53:49;;;;;;;9.63;4.00;;;9.60;99.90;;;9.88;81.93;101447.72;5113068;28;20481;-69
2023/11/26 03:56:18;;;;;;;10.70;4.30;;;9.60;99.90;;;9.86;81.98;101445.06;5094901;28;20040;-70
2023/11/26 03:58:46;;;;;;;9.55;4.43;;;9.60;99.90;;;9.63;81.66;101414.94;5113195;28;20051;-69
2023/11/26 04:01:14;;;;;;;12.70;4.03;;;9.50;99.90;;;9.68;81.72;101444.00;5094759;28;20043;-70
2023/11/26 04:03:43;;;;;;;12.57;4.30;;;9.40;99.90;;;9.70;81.91;101442.28;5112915;28;20047;-70
2023/11/26 04:06:13;;;;;;;7.57;3.80;;;9.40;99.90;;;9.67;82.17;101432.59;5113185;28;20059;-70
2023/11/26 04:08:41;;;;;;;9.70;4.43;;;9.40;99.90;;;9.70;82.16;101439.63;5112929;28;20047;-70
2023/11/26 04:11:10;;;;;;;12.20;4.07;;;9.40;99.90;;;9.76;81.80;101448.50;5113120;28;20046;-70
2023/11/26 04:13:38;;;;;;;13.75;4.47;;;9.40;99.90;;;9.76;81.87;101437.03;5094844;28;20075;-70
2023/11/26 04:16:10;;;;;;;13.75;4.72;;;9.50;99.90;;;9.85;81.72;101440.63;5094673;28;20472;-69
2023/11/26 04:18:39;;;;;;;11.48;4.20;;;9.50;99.90;;;9.89;81.92;101445.06;5112850;28;20040;-70
2023/11/26 04:21:08;;;;;;;9.98;4.38;;;9.60;99.90;;;9.95;81.96;101453.06;5112763;28;20583;-69
2023/11/26 04:23:38;;;;;;;16.30;4.68;;;9.60;99.90;;;9.97;82.00;101451.31;5112738;28;20048;-70
2023/11/26 04:26:07;;;;;;;19.65;4.78;;;9.70;99.90;;;9.74;82.36;101417.66;5094748;28;20480;-70
2023/11/26 04:28:36;;;;;;;11.80;4.30;;;9.60;99.90;;;9.83;82.72;101441.53;5112722;28;20098;-70
2023/11/26 04:31:04;;;;;;;11.45;4.57;;;9.60;99.90;;;9.88;82.74;101448.59;5094655;28;20047;-70
2023/11/26 04:33:32;;;;;;;13.13;4.28;;;9.60;99.90;;;9.83;83.24;101450.31;5094659;28;20390;-70
2023/11/26 04:36:01;;;;;;;11.52;4.30;;;9.50;99.90;;;9.74;82.73;101444.06;5112801;28;20044;-70
2023/11/26 04:38:29;;;;;;;12.00;4.05;;;9.40;99.90;;;9.58;82.75;101440.41;5112629;28;20059;-70
2023/11/26 04:40:59;;;;;;;15.30;4.63;;;9.30;99.90;;;9.58;83.30;101453.63;5112574;28;20051;-70
2023/11/26 04:43:28;;;;;;;10.85;4.03;;;9.30;99.90;;;9.37;83.30;101416.47;5115748;28;20064;-70
2023/11/26 04:45:57;;;;;;;12.32;4.43;;;9.30;99.90;;;9.56;83.56;101449.22;5098310;28;20452;-70
2023/11/26 04:48:25;;;;;;;11.05;4.50;;;9.20;99.90;;;9.51;82.75;101445.63;5116240;28;20066;-70
2023/11/26 04:50:56;;;;;;;10.50;4.70;;;9.20;99.90;;;9.35;83.13;101444.59;5116406;28;20261;-70
2023/11/26 04:53:24;;;;;;;10.40;4.10;;;9.10;99.90;;;9.40;83.62;101453.47;5116252;28;20140;-70
2023/11/26 04:55:56;;;;;;;12.48;4.50;;;9.10;99.90;;;9.32;83.55;101457.78;5116655;28;20042;-70
2023/11/26 04:58:26;;;;;;;8.88;4.13;;;9.00;99.90;;;9.25;83.87;101457.72;5116367;28;20041;-69
2023/11/26 05:00:54;;;;;;;11.00;4.35;;;8.90;99.90;;;9.30;83.94;101446.31;5116230;28;20120;-70
2023/11/26 05:03:23;;;;;;;9.07;4.07;;;9.00;99.90;;;9.36;83.95;101456.94;5115991;28;20093;-70
2023/11/26 05:05:52;;;;;;;10.38;3.92;;;9.00;99.90;;;9.43;83.83;101448.19;5116200;28;20458;-69
2023/11/26 05:08:20;;;;;;;12.18;4.28;;;9.10;99.90;;;9.46;83.48;101457.91;5115873;28;20035;-70
2023/11/26 05:10:49;;;;;;;18.00;4.82;;;9.10;99.90;;;9.43;83.56;101448.19;5115849;28;20043;-70
2023/11/26 05:13:18;;;;;;;14.40;4.68;;;9.10;99.90;;;9.50;83.36;101449.16;5115775;28;20047;-69
2023/11/26 05:15:47;;;;;;;11.35;4.00;;;9.10;99.90;;;9.43;83.48;101450.84;5115593;28;20043;-69
2023/11/26 05:18:16;;;;;;;9.52;4.43;;;9.10;99.90;;;9.36;84.05;101445.50;5115687;28;20055;-70
2023/11/26 05:20:45;;;;;;;11.43;3.90;;;9.10;99.90;;;9.43;84.40;101442.91;5115606;28;20492;-70
2023/11/26 05:23:14;;;;;;;9.43;3.92;;;9.10;99.90;;;9.36;84.51;101446.38;5115815;28;20100;-70
2023/11/26 05:25:42;;;;;;;7.30;4.00;;;9.10;99.90;;;9.44;84.73;101444.72;5115801;28;20039;-70
2023/11/26 05:28:11;;;;;;;11.57;4.60;;;9.10;99.90;;;9.42;84.47;101443.81;5115425;28;20031;-70
2023/11/26 05:30:39;;;;;;;10.27;4.47;;;9.10;99.90;;;9.35;84.26;101433.19;5115426;28;20043;-69
2023/11/26 05:33:09;;;;;;;7.57;3.80;;;9.10;99.90;;;9.39;84.85;101441.13;5115591;28;20065;-70
2023/11/26 05:35:38;;;;;;;12.00;4.47;;;9.10;99.90;;;9.35;84.75;101444.59;5115501;28;20042;-70
2023/11/26 05:38:19;;;;;;;15.45;4.70;;;9.00;99.90;;;9.35;84.77;101443.75;5115243;28;20049;-70
2023/11/26 05:40:48;;;;;;;11.93;4.07;;;9.00;99.90;;;9.29;84.52;101428.69;5115150;28;20133;-69
2023/11/26 05:43:16;;;;;;;15.85;5.05;;;9.00;99.90;;;9.40;84.82;101437.63;5115189;28;20454;-69
2023/11/26 05:45:45;;;;;;;11.98;4.80;;;9.10;99.90;;;9.52;84.77;101444.78;5115163;28;20100;-70
2023/11/26 05:48:15;;;;;;;12.07;4.22;;;9.20;99.90;;;9.58;84.59;101445.69;5115067;28;20541;-70
2023/11/26 05:50:43;;;;;;;14.05;4.75;;;9.20;99.90;;;9.66;83.94;101443.13;5115041;28;20074;-70
2023/11/26 05:53:12;;;;;;;14.85;4.60;;;9.30;99.90;;;9.69;83.49;101443.16;5096262;28;20048;-70
2023/11/26 05:55:41;;;;;;;11.40;4.70;;;9.40;99.90;;;9.69;83.57;101440.53;5114731;28;20088;-70
2023/11/26 05:58:09;;;;;;;10.40;4.43;;;9.40;99.90;;;9.68;84.08;101447.56;5114854;28;20124;-70
2023/11/26 06:00:38;;;;;;;11.05;4.35;;;9.40;99.90;;;9.66;83.87;101446.66;5114823;28;20056;-69
2023/11/26 06:03:06;;;;;;;14.23;4.60;;;9.40;99.90;;;9.67;83.51;101443.16;5114852;28;20047;-70
2023/11/26 06:05:37;;;;;;;13.52;4.90;;;9.30;99.90;;;9.70;83.55;101440.53;5115038;28;20082;-70
2023/11/26 06:08:06;;;;;;;20.63;4.73;;;9.40;99.90;;;9.59;83.43;101447.47;5114692;28;20092;-70
2023/11/26 06:10:34;;;;;;;13.10;4.80;;;9.30;99.90;;;9.49;83.46;101437.69;5114634;28;20358;-70
2023/11/26 06:13:03;;;;;;;13.27;4.50;;;9.20;99.90;;;9.49;83.65;101434.16;5114608;28;20503;-70
2023/11/26 06:15:31;;;;;;;11.63;4.63;;;9.10;99.90;;;9.52;83.69;101432.47;5114577;28;20043;-70
2023/11/26 06:17:59;;;;;;;14.68;5.05;;;9.20;99.90;;;9.40;83.71;101427.06;5114406;28;20055;-70
2023/11/26 06:20:28;;;;;;;14.13;4.28;;;9.10;99.90;;;9.43;84.58;101442.03;5096423;28;20048;-71
2023/11/26 06:22:57;;;;;;;10.82;4.45;;;9.10;99.90;;;9.51;84.04;101449.16;5114397;28;20039;-70
2023/11/26 06:25:26;;;;;;;14.90;4.27;;;9.10;99.90;;;9.55;84.06;101464.16;5114352;28;20093;-70
2023/11/26 06:27:54;;;;;;;11.77;4.60;;;9.20;99.90;;;9.32;84.80;101438.41;5114344;28;20035;-70
2023/11/26 06:30:23;;;;;;;12.15;4.10;;;9.20;99.90;;;8.95;88.46;101468.81;5114797;28;20130;-70
2023/11/26 06:32:52;;;;;;;11.77;3.95;;;8.80;99.90;;;8.48;92.16;101440.97;5114802;28;20057;-70
2023/11/26 06:35:20;;;;;;;12.77;4.03;;;8.50;99.90;;;8.70;94.39;101467.63;5114503;28;20035;-70
2023/11/26 06:37:49;;;;;;;12.02;4.18;;;8.50;99.90;;;9.02;94.14;101466.25;5114024;28;20040;-70
2023/11/26 06:40:20;;;;;;;10.18;4.38;;;8.70;99.90;;;8.80;94.00;101450.16;5114044;28;20043;-69
2023/11/26 06:42:48;;;;;;;11.23;4.55;;;8.70;99.90;;;8.90;94.56;101454.69;5114081;28;20043;-69
2023/11/26 06:45:17;;;;;;;11.27;3.85;;;8.70;99.90;;;9.09;94.41;101457.56;5113949;28;20400;-69
2023/11/26 06:47:45;;;;;;;11.15;3.92;;;8.80;99.90;;;9.35;93.95;101457.81;5095983;28;20051;-69
2023/11/26 06:50:13;;;;;;;9.60;3.78;;;9.00;99.90;;;9.50;93.27;101450.06;5114079;28;20419;-70
2023/11/26 06:52:42;;;;;;;9.20;3.63;;;9.20;99.90;;;9.59;92.36;101459.78;5113817;28;20423;-70
2023/11/26 06:55:10;;;;;;;11.77;3.60;;;9.30;99.90;;;9.54;92.08;101446.53;5113790;28;20050;-69
2023/11/26 06:57:40;;;;;;;11.20;3.65;;;9.30;99.90;;;9.60;92.64;101446.59;5113666;28;20036;-69
2023/11/26 07:00:11;;;;;;;7.07;3.80;;;9.30;99.90;;;9.58;91.87;101448.34;5113983;28;20446;-69
2023/11/26 07:02:41;;;;;;;10.65;3.60;;;9.30;99.90;;;9.67;92.11;101448.44;5114324;28;20043;-69
2023/11/26 07:05:09;;;;;;;8.10;3.70;;;9.30;99.90;;;9.68;91.32;101449.31;5113628;28;20039;-70
2023/11/26 07:07:38;;;;;;;8.27;3.67;;;9.40;99.90;;;9.71;91.60;101444.94;5113717;28;20047;-69
2023/11/26 07:10:09;;;;;;;11.80;4.20;;;9.40;99.90;;;9.77;91.12;101450.28;5113749;28;20488;-70
2023/11/26 07:12:37;;;;;;;;;;;9.40;99.90;;;9.79;91.13;101448.50;5113990;28;20113;-69
2023/11/26 07:15:10;;;;;;;10.13;3.53;;;9.50;99.90;;;9.80;91.06;101449.41;5113353;28;19919;-70
2023/11/26 07:17:38;;;;;;;10.05;4.22;;;9.50;99.90;;;9.71;90.86;101439.66;5113563;28;20424;-70
2023/11/26 07:20:09;;;;;;;8.60;3.47;;;9.50;99.90;;;9.66;90.97;101454.56;5113345;28;20043;-70
2023/11/26 07:22:38;;;;;;;10.18;4.20;;;9.40;99.90;;;9.64;91.58;101452.81;5113435;28;20035;-70
2023/11/26 07:25:08;;;;;;;8.13;3.63;;;9.30;99.90;;;9.70;91.50;101447.56;5113272;28;20050;-70
2023/11/26 07:27:36;;;;;;;8.98;4.15;;;9.40;99.90;;;9.75;91.66;101444.09;5113358;28;20052;-70
2023/11/26 07:30:09;;;;;;;8.50;3.58;;;9.40;99.90;;;9.75;91.48;101445.84;5113249;28;20378;-69
2023/11/26 07:32:39;;;;;;;10.88;3.95;;;9.40;99.90;;;9.77;91.17;101439.72;5113174;28;20093;-70
2023/11/26 07:35:08;;;;;;;5.60;3.80;;;9.50;99.90;;;9.80;90.99;101444.13;5113418;28;20044;-70
2023/11/26 07:37:36;;;;;;;10.20;4.43;;;9.50;99.90;;;9.82;90.95;101451.19;5113053;28;20105;-70
2023/11/26 07:40:07;;;;;;;5.63;3.95;;;9.50;99.90;;;9.90;90.57;101445.97;5113056;28;20555;-70
2023/11/26 07:42:37;;;;;;;9.50;4.50;;;9.60;99.90;;;9.97;89.96;101453.94;5113443;28;20526;-70
2023/11/26 07:45:09;;;;;;;9.23;3.78;;;9.70;99.90;;;10.03;89.71;101448.72;5113133;28;20039;-70
2023/11/26 07:47:37;;;;;;;9.50;4.70;;;9.70;99.90;;;10.09;89.23;101450.50;5113081;28;20070;-70
2023/11/26 07:50:07;;;;;;;8.75;3.60;;;9.80;99.90;;;10.07;88.85;101441.69;5113306;28;20036;-69
2023/11/26 07:52:38;;;;;;;12.00;4.00;;;9.80;99.90;;;10.18;88.83;101453.22;5113066;28;20044;-70
2023/11/26 07:55:07;;;;;;;8.98;4.40;;;9.90;99.90;;;10.19;88.44;101454.13;5112912;28;20051;-69
2023/11/26 07:57:37;;;;;;;10.00;4.03;;;9.90;99.90;;;10.21;88.41;101455.91;5113462;28;20122;-69
2023/11/26 08:00:09;;;;;;;13.30;4.22;;;9.90;99.90;;;10.22;88.09;101456.81;5112681;28;20404;-69
2023/11/26 08:02:41;;;;;;;6.65;3.80;;;9.90;99.90;;;10.26;88.05;101459.47;5113542;28;20047;-69
2023/11/26 08:05:11;;;;;;;14.90;4.43;;;10.00;99.90;;;10.29;87.93;101458.59;5112885;28;20040;-69
2023/11/26 08:07:39;;;;;;;8.38;3.78;;;10.00;99.90;;;10.29;87.73;101451.56;5094899;28;20043;-69
2023/11/26 08:10:18;;;;;;;9.45;4.00;;;10.00;99.90;;;10.29;87.72;101459.50;5094862;28;20059;-69
2023/11/26 08:12:49;;;;;;;10.85;4.10;;;10.00;99.90;;;10.30;87.65;101460.41;5113206;28;20373;-70
2023/11/26 08:15:20;;;;;;;10.30;3.97;;;10.00;99.90;;;10.29;87.18;101458.59;5112667;28;20551;-70
2023/11/26 08:17:50;;;;;;;10.15;4.13;;;10.00;99.90;;;10.32;87.12;101451.56;5115054;28;20135;-70
2023/11/26 08:20:20;;;;;;;7.60;3.75;;;10.00;99.90;;;9.83;86.74;101368.41;5117168;28;20047;-70
2023/11/26 08:22:51;;;;;;;9.27;3.97;;;10.00;99.90;;;10.35;86.32;101458.66;5116841;28;20039;-70
2023/11/26 08:25:23;;;;;;;8.73;4.10;;;10.00;99.90;;;10.31;86.00;101451.56;5116748;28;20484;-70
2023/11/26 08:27:52;;;;;;;9.18;3.60;;;10.10;99.90;;;10.38;86.04;101450.72;5116722;28;20408;-69
2023/11/26 08:30:39;;;;;;;10.50;4.00;;;10.10;99.90;;;10.40;85.97;101459.53;5116565;28;20045;-70
2023/11/26 08:33:09;;;;;;;7.85;4.10;;;10.10;99.90;;;10.32;86.10;101462.16;5116834;28;20504;-70
2023/11/26 08:35:38;;;;;;;11.35;4.20;;;10.00;99.90;;;10.40;85.95;101456.91;5116676;28;20051;-69
2023/11/26 08:38:06;;;;;;;9.57;4.28;;;10.10;99.90;;;10.46;85.94;101456.94;5116292;28;20044;-70
2023/11/26 08:40:34;;;;;;;9.60;4.20;;;10.10;99.90;;;10.56;85.76;101458.75;5116405;28;20074;-70
2023/11/26 08:43:04;;;;;;;8.02;4.00;;;10.20;99.90;;;10.57;85.59;101464.06;5116313;28;20575;-70
2023/11/26 08:45:34;;;;;;;10.73;4.47;;;10.20;99.90;;;10.63;85.54;101466.72;5116359;28;20500;-69
2023/11/26 08:48:02;;;;;;;11.88;4.50;;;10.30;99.90;;;10.70;85.21;101455.28;5116784;28;20385;-70
2023/11/26 08:50:31;;;;;;;8.52;4.50;;;10.30;99.90;;;10.78;84.92;101463.28;5116254;28;20113;-69
2023/11/26 08:53:00;;;;;;;11.65;4.10;;;10.40;99.90;;;10.69;85.01;101461.47;5116130;28;20555;-70
2023/11/26 08:55:28;;;;;;;12.95;4.95;;;10.40;99.90;;;10.68;85.82;101466.75;5098117;28;20054;-70
2023/11/26 08:57:57;;;;;;;14.25;5.75;;;10.40;99.90;;;10.75;85.96;101463.25;5116306;28;20093;-70
2023/11/26 09:00:25;;;;;;;11.77;4.78;;;10.40;99.90;;;10.80;86.12;101458.88;5115881;28;20134;-70
2023/11/26 09:02:55;;;;;;;8.35;4.03;;;10.50;99.90;;;10.78;86.26;101464.16;5115577;28;20044;-70
2023/11/26 09:05:24;;;;;;;11.32;4.70;;;10.40;99.90;;;10.84;86.28;101464.19;5115859;28;20488;-70
2023/11/26 09:07:53;;;;;;;10.13;4.35;;;10.50;99.90;;;10.86;86.04;101465.06;5115605;28;20097;-70
2023/11/26 09:10:21;;;;;;;10.93;4.55;;;10.50;99.90;;;10.93;85.87;101457.16;5115527;28;20032;-69
2023/11/26 09:12:49;;;;;;;10.05;4.85;;;10.60;99.90;;;10.97;85.44;101462.47;5115749;28;20050;-70
2023/11/26 09:15:18;;;;;;;8.07;4.30;;;10.60;99.90;;;11.00;85.42;101451.88;5115645;28;20097;-70
2023/11/26 09:17:46;;;;;;;7.57;4.32;;;10.60;99.90;;;11.03;85.34;101459.84;5097558;28;20048;-70
2023/11/26 09:20:16;;;;;;;13.30;5.00;;;10.70;99.90;;;11.05;85.38;101462.50;5115626;28;20389;-70
2023/11/26 09:22:45;;;;;;;10.63;4.63;;;10.70;99.90;;;11.01;85.18;101464.25;5115773;28;20047;-69
2023/11/26 09:25:13;;;;;;;8.30;4.50;;;10.70;99.90;;;10.96;85.23;101458.03;5115546;28;20423;-69
2023/11/26 09:27:42;;;;;;;11.05;4.20;;;10.70;99.90;;;10.97;85.47;101462.47;5115881;28;20051;-70
2023/11/26 09:30:12;;;;;;;10.00;4.30;;;10.70;99.90;;;11.01;85.78;101461.59;5115720;28;20044;-70
2023/11/26 09:32:43;;;;;;;8.07;4.05;;;10.70;99.90;;;10.74;86.31;101427.97;5115406;28;20484;-70
2023/11/26 09:35:11;;;;;;;6.22;3.92;;;10.70;99.90;;;10.91;86.58;101473.03;5115948;28;20053;-69
2023/11/26 09:37:41;;;;;;;7.00;3.78;;;10.70;99.90;;;11.03;86.78;101470.44;5115149;28;20146;-70
2023/11/26 09:40:11;;;;;;;7.40;3.67;;;10.70;99.90;;;11.05;86.85;101457.19;5115240;28;20500;-70
2023/11/26 09:42:41;;;;;;;7.90;3.92;;;10.70;99.90;;;10.98;87.27;101452.75;5097208;28;20354;-70
2023/11/26 09:45:11;;;;;;;7.25;3.95;;;10.70;99.90;;;11.01;87.61;101463.38;5115223;28;20548;-70
2023/11/26 09:47:40;;;;;;;9.02;3.83;;;10.70;99.90;;;11.10;87.31;101458.09;5115143;28;20438;-70
2023/11/26 09:50:10;;;;;;;8.45;3.90;;;10.80;99.90;;;11.09;87.35;101458.97;5115510;28;20043;-70
2023/11/26 09:52:41;;;;;;;7.40;3.78;;;10.80;99.90;;;11.14;87.37;101457.22;5115202;28;20147;-70
2023/11/26 09:55:09;;;;;;;7.22;3.47;;;10.80;99.90;;;11.11;87.24;101452.78;5114951;28;20495;-70
2023/11/26 09:57:39;;;;;;;6.30;3.70;;;10.80;99.90;;;11.14;87.12;101455.47;5115194;28;20046;-70
2023/11/26 10:00:12;;;;;;;8.10;3.95;;;10.80;99.90;;;11.14;87.11;101452.81;5096592;28;20070;-70
2023/11/26 10:02:41;;;;;;;5.72;3.50;;;10.80;99.90;;;11.15;87.01;101453.72;5115360;28;20044;-70
2023/11/26 10:05:24;;;;;;;6.97;3.80;;;10.90;99.90;;;11.21;87.07;101462.53;5114828;28;20043;-70
2023/11/26 10:07:54;;;;;;;8.20;3.60;;;10.90;99.90;;;11.01;87.38;101429.84;5114792;28;20044;-70
2023/11/26 10:10:24;;;;;;;9.55;4.00;;;10.90;99.90;;;11.20;87.22;101463.44;5114717;28;20553;-70
2023/11/26 10:12:54;;;;;;;7.80;3.60;;;10.90;99.90;;;11.26;87.19;101457.25;5114517;28;20040;-70
2023/11/26 10:15:26;;;;;;;10.15;3.80;;;10.90;99.90;;;11.21;87.16;101457.22;5096639;28;20518;-70
2023/11/26 10:18:04;;;;;;;9.07;3.55;;;10.90;99.90;;;11.05;87.56;101428.97;5114867;28;20122;-70
2023/11/26 10:20:34;;;;;;;10.75;4.18;;;10.90;99.90;;;11.06;87.61;101420.13;5114534;28;20062;-70
2023/11/26 10:23:04;;;;;;;10.40;3.72;;;10.90;99.90;;;11.18;87.75;101444.00;5114342;28;20039;-70
2023/11/26 10:25:33;;;;;;;7.78;3.70;;;10.80;99.90;;;11.00;88.59;101449.25;5114699;28;20480;-69
2023/11/26 10:28:02;;;;;;;12.90;4.32;;;10.70;99.90;;;10.90;88.29;101424.50;5114258;28;20134;-70
2023/11/26 10:30:33;;;;;;;8.98;3.60;;;10.70;99.90;;;10.98;88.23;101443.06;5114562;28;20044;-70